Time;durP1;ratioP1;P1;durP2;ratioP2;P2;SDS_P1;SDS_P2;PMS_P1;PMS_P2;Temp;Humidity;BMP_temperature;BMP_pressure;BME280_temperature;BME280_humidity;BME280_pressure;Samples;Min_cycle;Max_cycle;Signal;HPM_P1;HPM_P2
2022/01/23 00:00:22;;;;;;;10.57;5.00;;;;;;;;;;5093061;28;20633;-76
2022/01/23 00:02:48;;;;;;;12.27;4.20;;;;;;;;;;5093590;28;20282;-76
2022/01/23 00:05:15;;;;;;;10.53;4.83;;;;;;;;;;5093066;28;20423;-76
2022/01/23 00:07:43;;;;;;;13.47;4.90;;;;;;;;;;5091960;28;20282;-76
2022/01/23 00:10:10;;;;;;;10.70;4.10;;;;;;;;;;5075342;28;20292;-75
2022/01/23 00:12:45;;;;;;;16.70;4.30;;;;;;;;;;5092715;28;21334;-76
2022/01/23 00:17:55;;;;;;;13.17;4.10;;;;;;;;;;5093304;28;20055;-75
2022/01/23 00:20:22;;;;;;;11.87;4.23;;;;;;;;;;5092622;28;20359;-76
2022/01/23 00:22:52;;;;;;;12.47;4.40;;;;;;;;;;5075632;28;20808;-76
2022/01/23 00:30:49;;;;;;;14.95;4.35;;;;;;;;;;5093256;28;20044;-76
2022/01/23 00:33:18;;;;;;;15.00;4.80;;;;;;;;;;5092511;28;20533;-76
2022/01/23 00:35:45;;;;;;;9.77;4.45;;;;;;;;;;5092300;28;20282;-76
2022/01/23 00:38:12;;;;;;;14.13;4.97;;;;;;;;;;5092827;28;20488;-76
2022/01/23 00:40:39;;;;;;;9.77;4.50;;;;;;;;;;5125082;28;20298;-75
2022/01/23 00:43:14;;;;;;;11.23;4.50;;;;;;;;;;5092765;28;20351;-76
2022/01/23 00:45:50;;;;;;;10.25;4.68;;;;;;;;;;5092641;28;20393;-75
2022/01/23 00:48:18;;;;;;;11.73;4.50;;;;;;;;;;5091938;28;20056;-75
2022/01/23 00:50:45;;;;;;;11.70;5.03;;;;;;;;;;5092478;28;20321;-75
2022/01/23 00:53:13;;;;;;;17.90;5.63;;;;;;;;;;5091465;28;20708;-75
2022/01/23 00:55:40;;;;;;;13.53;5.47;;;;;;;;;;5092262;28;20293;-75
2022/01/23 00:58:06;;;;;;;19.53;5.50;;;;;;;;;;5091699;28;20290;-75
2022/01/23 01:00:32;;;;;;;14.67;5.83;;;;;;;;;;5091047;28;20861;-76
2022/01/23 01:02:58;;;;;;;12.18;6.30;;;;;;;;;;5092618;28;20274;-75
2022/01/23 01:05:28;;;;;;;13.77;5.67;;;;;;;;;;5092285;28;20127;-76
2022/01/23 01:07:58;;;;;;;16.07;6.27;;;;;;;;;;5092508;28;20289;-76
2022/01/23 01:10:31;;;;;;;12.47;6.50;;;;;;;;;;5074466;28;20646;-75
2022/01/23 01:13:00;;;;;;;12.23;6.17;;;;;;;;;;5092676;28;20298;-76
2022/01/23 01:31:45;;;;;;;14.15;6.95;;;;;;;;;;5095771;28;20476;-75
2022/01/23 01:34:36;;;;;;;10.73;6.03;;;;;;;;;;5096155;28;20442;-75
2022/01/23 01:37:04;;;;;;;12.60;6.10;;;;;;;;;;5096019;28;20281;-75
2022/01/23 01:39:30;;;;;;;17.47;6.60;;;;;;;;;;5095524;28;20282;-75
2022/01/23 01:41:56;;;;;;;11.40;6.87;;;;;;;;;;5095973;28;20302;-75
2022/01/23 01:44:23;;;;;;;12.60;5.80;;;;;;;;;;5095636;28;20316;-75
2022/01/23 01:46:49;;;;;;;15.80;6.23;;;;;;;;;;5095417;28;20282;-75
2022/01/23 01:49:22;;;;;;;11.73;5.83;;;;;;;;;;5095622;28;20282;-75
2022/01/23 01:51:48;;;;;;;13.67;6.13;;;;;;;;;;5095351;28;20318;-75
2022/01/23 01:54:18;;;;;;;13.17;5.97;;;;;;;;;;5095488;28;20348;-75
2022/01/23 01:57:02;;;;;;;16.00;5.43;;;;;;;;;;5095139;28;20776;-75
2022/01/23 01:59:48;;;;;;;11.20;5.27;;;;;;;;;;5095188;28;20278;-76
2022/01/23 02:10:34;;;;;;;9.70;4.90;;;;;;;;;;5094133;28;20286;-75
2022/01/23 02:13:10;;;;;;;12.13;5.40;;;;;;;;;;5095102;28;20298;-75
2022/01/23 02:51:26;;;;;;;8.80;5.63;;;;;;;;;;5094214;28;20486;-75
2022/01/23 02:56:37;;;;;;;10.77;6.00;;;;;;;;;;5094557;28;20307;-75
2022/01/23 02:59:14;;;;;;;11.23;5.50;;;;;;;;;;5094423;28;20281;-75
2022/01/23 03:04:25;;;;;;;8.55;5.43;;;;;;;;;;5094279;28;20330;-75
2022/01/23 03:29:58;;;;;;;10.60;6.37;;;;;;;;;;5093364;28;20753;-76
2022/01/23 03:34:50;;;;;;;13.10;6.10;;;;;;;;;;5093288;28;20317;-76
2022/01/23 03:37:16;;;;;;;8.77;5.10;;;;;;;;;;5093729;28;20271;-76
2022/01/23 03:39:42;;;;;;;10.00;5.57;;;;;;;;;;5093385;28;20289;-76
2022/01/23 03:42:09;;;;;;;11.90;5.30;;;;;;;;;;5093203;28;20290;-76
2022/01/23 03:44:40;;;;;;;11.67;5.77;;;;;;;;;;5075433;28;20769;-76
2022/01/23 03:47:22;;;;;;;12.52;4.72;;;;;;;;;;5093728;28;20326;-76
2022/01/23 03:49:50;;;;;;;11.40;4.50;;;;;;;;;;5092033;28;20048;-76
2022/01/23 03:52:16;;;;;;;9.63;4.20;;;;;;;;;;5093267;28;20285;-76
2022/01/23 03:54:43;;;;;;;11.10;4.70;;;;;;;;;;5093041;28;20278;-76
2022/01/23 03:57:09;;;;;;;8.63;4.30;;;;;;;;;;5093274;28;20278;-76
2022/01/23 03:59:36;;;;;;;10.70;4.77;;;;;;;;;;5093256;28;20289;-76
2022/01/23 04:02:02;;;;;;;10.17;4.20;;;;;;;;;;5091879;28;20286;-76
2022/01/23 04:06:58;;;;;;;10.00;4.20;;;;;;;;;;5092811;28;20322;-76
2022/01/23 04:09:24;;;;;;;9.30;4.30;;;;;;;;;;5092192;28;20045;-76
2022/01/23 04:11:51;;;;;;;8.13;3.80;;;;;;;;;;5092782;28;20361;-76
2022/01/23 04:14:19;;;;;;;8.90;4.10;;;;;;;;;;5091798;28;20415;-76
2022/01/23 04:33:29;;;;;;;11.32;4.10;;;;;;;;;;5092667;28;20309;-76
2022/01/23 04:47:58;;;;;;;9.00;3.72;;;;;;;;;;5092561;28;20048;-76
2022/01/23 05:00:54;;;;;;;8.40;3.53;;;;;;;;;;5096386;28;20052;-76
2022/01/23 05:06:07;;;;;;;9.38;3.65;;;;;;;;;;5096264;28;20360;-76
2022/01/23 05:08:36;;;;;;;8.93;3.83;;;;;;;;;;5096457;28;20048;-75
2022/01/23 05:11:03;;;;;;;7.57;3.50;;;;;;;;;;5095109;28;20282;-75
2022/01/23 05:13:31;;;;;;;7.35;3.50;;;;;;;;;;5096447;28;20324;-75
2022/01/23 05:15:57;;;;;;;10.43;3.97;;;;;;;;;;5096037;28;20377;-75
2022/01/23 05:18:23;;;;;;;7.60;3.30;;;;;;;;;;5096272;28;20282;-74
2022/01/23 05:20:57;;;;;;;8.63;3.10;;;;;;;;;;5094715;28;20373;-75
2022/01/23 05:23:23;;;;;;;7.67;3.60;;;;;;;;;;5096379;28;20372;-74
2022/01/23 05:25:49;;;;;;;7.75;3.83;;;;;;;;;;5094549;28;20320;-75
2022/01/23 05:28:15;;;;;;;7.63;4.22;;;;;;;;;;5095111;28;20416;-74
2022/01/23 05:30:43;;;;;;;6.60;3.77;;;;;;;;;;5096000;28;20052;-74
2022/01/23 05:33:09;;;;;;;8.67;4.00;;;;;;;;;;5095634;28;20623;-75
2022/01/23 05:35:35;;;;;;;10.37;4.10;;;;;;;;;;5078153;28;20274;-75
2022/01/23 05:38:01;;;;;;;8.03;3.70;;;;;;;;;;5095532;28;20282;-74
2022/01/23 05:40:29;;;;;;;9.50;4.37;;;;;;;;;;5095564;28;20298;-74
2022/01/23 05:42:55;;;;;;;9.80;4.00;;;;;;;;;;5095586;28;20289;-75
2022/01/23 05:45:22;;;;;;;8.70;3.97;;;;;;;;;;5077768;28;20380;-74
2022/01/23 05:47:48;;;;;;;7.10;3.97;;;;;;;;;;5095747;28;20321;-74
2022/01/23 05:50:14;;;;;;;8.45;4.20;;;;;;;;;;5095058;28;20791;-75
2022/01/23 05:52:40;;;;;;;8.93;3.90;;;;;;;;;;5095598;28;20459;-74
2022/01/23 05:55:06;;;;;;;6.77;4.00;;;;;;;;;;5095338;28;20282;-75
2022/01/23 05:57:32;;;;;;;10.93;4.40;;;;;;;;;;5095516;28;20369;-74
2022/01/23 05:59:58;;;;;;;6.80;4.10;;;;;;;;;;5093675;28;20841;-75
2022/01/23 06:02:24;;;;;;;7.90;4.37;;;;;;;;;;5128533;27;20668;-74
2022/01/23 06:04:50;;;;;;;8.88;4.40;;;;;;;;;;5093641;28;20286;-74
2022/01/23 06:07:17;;;;;;;8.63;4.43;;;;;;;;;;5094651;28;20101;-74
2022/01/23 06:09:43;;;;;;;8.13;4.70;;;;;;;;;;5094296;28;20305;-74
2022/01/23 06:12:09;;;;;;;8.40;3.93;;;;;;;;;;5094868;28;20286;-74
2022/01/23 06:14:35;;;;;;;7.40;3.87;;;;;;;;;;5094862;28;20799;-74
2022/01/23 06:17:01;;;;;;;6.60;4.20;;;;;;;;;;5094860;28;20289;-74
2022/01/23 06:19:27;;;;;;;6.27;3.60;;;;;;;;;;5095396;28;20347;-74
2022/01/23 06:21:53;;;;;;;7.03;3.83;;;;;;;;;;5093655;28;20384;-77
2022/01/23 06:24:25;;;;;;;6.33;3.63;;;;;;;;;;5094950;28;20278;-74
2022/01/23 06:26:53;;;;;;;6.83;3.90;;;;;;;;;;5094074;28;20334;-74
2022/01/23 06:29:19;;;;;;;6.38;3.83;;;;;;;;;;5076886;28;20286;-74
2022/01/23 06:31:46;;;;;;;7.07;3.87;;;;;;;;;;5094071;28;20079;-74
2022/01/23 06:34:13;;;;;;;5.70;3.40;;;;;;;;;;5094319;28;20301;-74
2022/01/23 06:36:39;;;;;;;5.97;3.27;;;;;;;;;;5094804;28;20286;-74
2022/01/23 06:39:06;;;;;;;20.20;18.02;;;;;;;;;;5094379;28;20286;-74
2022/01/23 06:41:32;;;;;;;14.87;12.23;;;;;;;;;;5094277;28;20135;-74
2022/01/23 06:43:59;;;;;;;9.60;4.90;;;;;;;;;;5094352;28;20642;-75
2022/01/23 06:46:25;;;;;;;6.07;4.40;;;;;;;;;;5094581;28;20285;-74
2022/01/23 06:48:51;;;;;;;8.53;4.20;;;;;;;;;;5094545;28;20289;-74
2022/01/23 06:51:18;;;;;;;6.95;3.50;;;;;;;;;;5094137;28;20333;-74
2022/01/23 06:53:44;;;;;;;5.70;3.13;;;;;;;;;;5094481;28;20044;-74
2022/01/23 06:56:10;;;;;;;7.30;3.47;;;;;;;;;;5076371;28;20769;-75
2022/01/23 06:58:36;;;;;;;5.35;2.83;;;;;;;;;;5094369;28;20286;-74
2022/01/23 07:01:07;;;;;;;5.77;3.13;;;;;;;;;;5093921;28;20123;-74
2022/01/23 07:03:33;;;;;;;5.50;2.97;;;;;;;;;;5094325;28;20669;-74
2022/01/23 07:05:59;;;;;;;4.93;2.90;;;;;;;;;;5093944;28;20282;-75
2022/01/23 07:08:25;;;;;;;4.57;2.70;;;;;;;;;;5094148;28;20379;-75
2022/01/23 07:10:51;;;;;;;4.60;2.57;;;;;;;;;;5093766;28;20645;-75
2022/01/23 07:13:17;;;;;;;7.67;2.90;;;;;;;;;;5092428;28;20302;-75
2022/01/23 07:15:43;;;;;;;6.10;3.30;;;;;;;;;;5092204;28;20789;-74
2022/01/23 07:18:10;;;;;;;5.70;2.70;;;;;;;;;;5093660;28;20626;-74
2022/01/23 07:20:36;;;;;;;5.97;3.20;;;;;;;;;;5093821;28;20286;-74
2022/01/23 07:23:02;;;;;;;6.10;3.10;;;;;;;;;;5093623;28;20357;-75
2022/01/23 07:25:28;;;;;;;5.33;2.97;;;;;;;;;;5092850;28;20040;-75
2022/01/23 07:27:57;;;;;;;6.68;2.60;;;;;;;;;;5093693;28;20286;-74
2022/01/23 07:32:50;;;;;;;4.67;2.80;;;;;;;;;;5093788;28;20118;-75
2022/01/23 07:35:16;;;;;;;6.17;2.57;;;;;;;;;;5092351;28;20282;-75
2022/01/23 07:37:42;;;;;;;5.70;3.23;;;;;;;;;;5092532;28;20286;-75
2022/01/23 07:40:09;;;;;;;7.75;3.25;;;;;;;;;;5092393;28;20351;-75
2022/01/23 07:42:35;;;;;;;7.15;2.88;;;;;;;;;;5093168;28;20078;-75
2022/01/23 07:45:02;;;;;;;5.67;3.20;;;;;;;;;;5093453;28;20063;-75
2022/01/23 07:47:28;;;;;;;9.23;3.80;;;;;;;;;;5093373;28;20286;-75
2022/01/23 07:49:54;;;;;;;7.07;3.40;;;;;;;;;;5092298;28;20044;-75
2022/01/23 07:52:20;;;;;;;7.63;3.10;;;;;;;;;;5092969;28;20293;-75
2022/01/23 07:54:46;;;;;;;6.80;3.30;;;;;;;;;;5093346;28;20087;-74
2022/01/23 07:57:12;;;;;;;8.80;6.10;;;;;;;;;;5093036;28;20282;-75
2022/01/23 07:59:39;;;;;;;6.97;4.10;;;;;;;;;;5092408;28;20047;-75
2022/01/23 08:02:05;;;;;;;8.40;3.67;;;;;;;;;;5092816;28;20339;-76
2022/01/23 08:04:31;;;;;;;7.40;3.70;;;;;;;;;;5092214;28;20282;-80
2022/01/23 08:07:13;;;;;;;8.50;4.13;;;;;;;;;;5092077;28;20113;-76
2022/01/23 08:09:39;;;;;;;6.40;3.40;;;;;;;;;;5092556;28;20293;-75
2022/01/23 08:12:05;;;;;;;8.23;4.97;;;;;;;;;;5092019;28;20321;-78
2022/01/23 08:14:31;;;;;;;8.30;5.40;;;;;;;;;;5093028;28;20302;-79
2022/01/23 08:16:57;;;;;;;7.72;5.00;;;;;;;;;;5093187;28;20289;-74
2022/01/23 08:19:23;;;;;;;6.60;4.20;;;;;;;;;;5091792;28;20130;-75
2022/01/23 08:21:49;;;;;;;7.20;4.17;;;;;;;;;;5075065;28;20339;-78
2022/01/23 08:24:16;;;;;;;8.17;4.00;;;;;;;;;;5074894;28;20343;-76
2022/01/23 08:26:42;;;;;;;8.23;4.67;;;;;;;;;;5095893;28;20357;-75
2022/01/23 08:29:09;;;;;;;7.50;4.23;;;;;;;;;;5096858;28;20278;-76
2022/01/23 08:31:35;;;;;;;8.35;4.20;;;;;;;;;;5097167;28;20282;-76
2022/01/23 08:34:01;;;;;;;7.53;4.30;;;;;;;;;;5095876;28;20051;-76
2022/01/23 08:36:29;;;;;;;7.63;4.57;;;;;;;;;;5096775;28;20350;-76
2022/01/23 08:38:58;;;;;;;6.47;4.37;;;;;;;;;;5097009;28;20282;-76
2022/01/23 08:43:51;;;;;;;7.70;4.53;;;;;;;;;;5096967;28;20282;-75
2022/01/23 08:46:18;;;;;;;7.50;4.70;;;;;;;;;;5096650;28;20336;-76
2022/01/23 08:48:44;;;;;;;8.43;5.53;;;;;;;;;;5096704;28;20793;-75
2022/01/23 08:51:11;;;;;;;12.23;7.27;;;;;;;;;;5096488;28;20048;-77
2022/01/23 08:53:37;;;;;;;11.20;6.97;;;;;;;;;;5096684;28;20348;-76
2022/01/23 08:56:04;;;;;;;10.40;6.87;;;;;;;;;;5096716;28;20377;-76
2022/01/23 08:58:30;;;;;;;11.53;7.17;;;;;;;;;;5095115;28;20298;-76
2022/01/23 09:00:56;;;;;;;10.77;7.23;;;;;;;;;;5096565;28;20278;-75
2022/01/23 09:03:22;;;;;;;10.27;6.17;;;;;;;;;;5078424;28;20326;-77
2022/01/23 09:05:48;;;;;;;9.40;4.77;;;;;;;;;;5096546;28;20286;-76
2022/01/23 09:08:15;;;;;;;9.60;6.00;;;;;;;;;;5096163;28;20278;-76
2022/01/23 09:10:51;;;;;;;9.67;5.83;;;;;;;;;;5096490;28;20310;-76
2022/01/23 09:15:56;;;;;;;9.77;5.47;;;;;;;;;;5096349;28;20318;-76
2022/01/23 09:18:22;;;;;;;9.53;5.53;;;;;;;;;;5095030;28;20290;-76
2022/01/23 09:20:48;;;;;;;8.60;5.17;;;;;;;;;;5096265;28;20607;-76
2022/01/23 09:23:14;;;;;;;7.87;4.97;;;;;;;;;;5095012;28;20301;-78
2022/01/23 09:25:40;;;;;;;6.37;4.10;;;;;;;;;;5096032;28;20774;-76
2022/01/23 09:28:12;;;;;;;7.13;4.50;;;;;;;;;;5096151;28;20282;-75
2022/01/23 09:30:39;;;;;;;7.77;5.17;;;;;;;;;;5094255;28;20335;-78
2022/01/23 09:33:06;;;;;;;8.17;5.00;;;;;;;;;;5091774;28;20623;-77
2022/01/23 09:35:32;;;;;;;6.70;4.23;;;;;;;;;;5095211;28;20286;-77
2022/01/23 09:37:58;;;;;;;6.60;4.23;;;;;;;;;;5095130;28;20286;-76
2022/01/23 09:40:24;;;;;;;6.68;4.00;;;;;;;;;;5090614;28;20285;-75
2022/01/23 09:42:55;;;;;;;7.30;4.00;;;;;;;;;;5094230;28;20088;-74
2022/01/23 09:45:22;;;;;;;6.77;4.23;;;;;;;;;;5095390;28;20301;-74
2022/01/23 09:47:48;;;;;;;6.73;4.23;;;;;;;;;;5096296;28;20650;-77
2022/01/23 09:50:16;;;;;;;5.77;3.60;;;;;;;;;;5095673;28;20286;-77
2022/01/23 09:52:42;;;;;;;6.87;4.17;;;;;;;;;;5094995;28;20348;-75
2022/01/23 09:55:11;;;;;;;6.13;3.23;;;;;;;;;;5095271;28;20701;-75
2022/01/23 09:57:46;;;;;;;6.10;3.23;;;;;;;;;;5094115;28;20322;-76
2022/01/23 10:00:13;;;;;;;8.43;3.92;;;;;;;;;;5095547;28;20761;-77
2022/01/23 10:02:40;;;;;;;6.93;3.53;;;;;;;;;;5094160;28;20051;-77
2022/01/23 10:05:06;;;;;;;5.20;3.00;;;;;;;;;;5095655;28;20777;-76
2022/01/23 10:07:37;;;;;;;5.63;3.20;;;;;;;;;;5094073;28;20274;-76
2022/01/23 10:10:16;;;;;;;4.87;3.17;;;;;;;;;;5095601;28;20278;-78
2022/01/23 10:12:43;;;;;;;5.60;3.77;;;;;;;;;;5095097;28;20384;-75
2022/01/23 10:15:10;;;;;;;5.37;3.43;;;;;;;;;;5095263;28;20285;-75
2022/01/23 10:17:36;;;;;;;4.63;3.20;;;;;;;;;;5093897;28;20334;-76
2022/01/23 10:20:05;;;;;;;8.47;6.20;;;;;;;;;;5095231;28;20286;-76
2022/01/23 10:22:32;;;;;;;7.40;3.97;;;;;;;;;;5086417;28;20300;-76
2022/01/23 10:25:06;;;;;;;6.70;3.87;;;;;;;;;;5086993;28;20373;-86
2022/01/23 10:27:50;;;;;;;4.40;2.30;;;;;;;;;;5088475;28;20642;-82
2022/01/23 10:30:20;;;;;;;5.40;3.23;;;;;;;;;;5087422;28;20388;-82
2022/01/23 10:33:04;;;;;;;5.00;3.10;;;;;;;;;;5085412;28;20328;-85
2022/01/23 10:35:31;;;;;;;5.13;2.80;;;;;;;;;;5085822;28;20373;-84
2022/01/23 10:38:04;;;;;;;5.93;3.07;;;;;;;;;;5086895;28;20860;-82
2022/01/23 10:40:35;;;;;;;5.20;3.20;;;;;;;;;;5082588;28;20306;-81
2022/01/23 10:48:35;;;;;;;6.00;2.50;;;;;;;;;;5087376;28;20680;-87
2022/01/23 10:51:18;;;;;;;5.87;3.13;;;;;;;;;;5081906;28;20286;-87
2022/01/23 10:54:04;;;;;;;4.63;2.77;;;;;;;;;;5083086;28;20317;-87
2022/01/23 10:56:31;;;;;;;6.72;4.03;;;;;;;;;;5083633;28;20366;-85
2022/01/23 10:59:04;;;;;;;5.50;3.10;;;;;;;;;;5086600;28;20415;-85
2022/01/23 11:01:31;;;;;;;9.33;3.33;;;;;;;;;;5083727;28;20502;-85
2022/01/23 11:04:04;;;;;;;6.90;3.47;;;;;;;;;;5083881;28;20290;-82
2022/01/23 11:06:30;;;;;;;6.40;3.13;;;;;;;;;;5085853;28;20290;-84
2022/01/23 11:09:09;;;;;;;7.13;3.70;;;;;;;;;;5083234;28;20297;-82
2022/01/23 11:11:49;;;;;;;6.17;3.87;;;;;;;;;;5093640;28;20347;-85
2022/01/23 11:19:46;;;;;;;8.70;5.03;;;;;;;;;;5092393;28;20387;-78
2022/01/23 11:22:16;;;;;;;7.43;4.27;;;;;;;;;;5093922;28;20285;-77
2022/01/23 11:24:45;;;;;;;7.70;5.13;;;;;;;;;;5093571;28;20278;-77
2022/01/23 11:27:22;;;;;;;11.43;5.10;;;;;;;;;;5094027;28;20290;-79
2022/01/23 11:29:55;;;;;;;7.70;4.97;;;;;;;;;;5093565;28;20277;-80
2022/01/23 11:32:23;;;;;;;7.53;4.20;;;;;;;;;;5093793;28;20325;-76
2022/01/23 11:34:50;;;;;;;8.17;4.33;;;;;;;;;;5092367;28;20790;-76
2022/01/23 11:37:17;;;;;;;7.70;5.50;;;;;;;;;;5092638;28;20278;-77
2022/01/23 11:39:53;;;;;;;8.93;5.63;;;;;;;;;;5093236;28;20282;-77
2022/01/23 11:56:26;;;;;;;12.53;6.63;;;;;;;;;;5093662;28;20365;-77
2022/01/23 11:58:53;;;;;;;11.03;5.93;;;;;;;;;;5092950;28;20278;-80
2022/01/23 12:01:22;;;;;;;11.17;6.17;;;;;;;;;;5092889;28;20792;-78
2022/01/23 12:04:11;;;;;;;9.47;5.47;;;;;;;;;;5092999;28;20874;-75
2022/01/23 12:06:42;;;;;;;9.60;5.30;;;;;;;;;;5093016;28;20288;-76
2022/01/23 12:09:18;;;;;;;8.47;4.87;;;;;;;;;;5075670;28;20851;-75
2022/01/23 12:12:37;;;;;;;7.73;5.17;;;;;;;;;;5092973;28;20377;-78
2022/01/23 12:18:22;;;;;;;9.07;4.85;;;;;;;;;;5071640;28;21109;-78
2022/01/23 12:20:53;;;;;;;9.60;4.70;;;;;;;;;;5085611;28;20048;-76
2022/01/23 12:23:19;;;;;;;7.63;4.30;;;;;;;;;;5083997;28;20615;-82
2022/01/23 12:25:50;;;;;;;7.60;4.43;;;;;;;;;;5083416;28;20366;-76
2022/01/23 12:28:17;;;;;;;10.10;4.50;;;;;;;;;;5086806;28;20290;-76
2022/01/23 12:30:45;;;;;;;12.20;4.50;;;;;;;;;;5085401;28;20298;-76
2022/01/23 12:33:19;;;;;;;8.80;4.40;;;;;;;;;;5086035;28;20807;-76
2022/01/23 12:35:46;;;;;;;10.73;4.20;;;;;;;;;;5085359;28;20342;-76
2022/01/23 12:38:13;;;;;;;9.23;4.63;;;;;;;;;;5086716;28;20812;-80
2022/01/23 12:40:41;;;;;;;9.13;4.67;;;;;;;;;;5085367;28;20294;-77
2022/01/23 12:43:15;;;;;;;8.70;4.50;;;;;;;;;;5086428;28;20361;-76
2022/01/23 12:45:44;;;;;;;7.32;3.80;;;;;;;;;;5083236;28;20310;-76
2022/01/23 12:48:26;;;;;;;6.87;4.10;;;;;;;;;;5087042;28;20052;-75
2022/01/23 12:50:56;;;;;;;9.30;4.33;;;;;;;;;;5086941;28;20278;-77
2022/01/23 12:53:33;;;;;;;12.40;5.20;;;7.80;99.90;;;;;;5078306;28;20305;-80
2022/01/23 12:56:04;;;;;;;11.07;4.83;;;7.90;99.90;;;;;;5053437;28;20770;-76
2022/01/23 12:58:32;;;;;;;9.00;4.50;;;7.90;99.90;;;;;;5086964;28;20293;-75
2022/01/23 13:00:59;;;;;;;9.23;5.80;;;7.90;99.90;;;;;;5086465;28;20402;-81
2022/01/23 13:03:26;;;;;;;9.93;5.13;;;7.90;99.90;;;;;;5068086;28;20307;-84
2022/01/23 13:05:52;;;;;;;9.70;5.60;;;7.90;99.90;;;;;;5089915;28;20521;-79
2022/01/23 13:08:23;;;;;;;10.07;4.97;;;7.90;99.90;;;;;;5086008;28;20278;-77
2022/01/23 13:16:00;;;;;;;10.93;5.07;;;8.00;99.90;;;;;;5089175;28;20290;-78
2022/01/23 13:31:52;;;;;;;8.50;4.77;;;8.00;99.90;;;;;;5089793;28;20363;-87
2022/01/23 13:34:25;;;;;;;11.43;4.93;;;8.00;99.90;;;;;;5089814;28;20309;-83
2022/01/23 13:36:54;;;;;;;12.53;5.03;;;8.00;99.90;;;;;;5089831;28;20290;-81
2022/01/23 13:39:35;;;;;;;10.40;5.10;;;8.00;99.90;;;;;;5090246;28;20278;-79
2022/01/23 13:59:48;;;;;;;6.10;3.87;;;7.90;99.90;;;;;;5088985;28;20286;-90
2022/01/23 14:02:30;;;;;;;8.50;4.37;;;7.90;99.90;;;;;;5089435;28;20286;-94
2022/01/23 14:05:17;;;;;;;9.60;4.07;;;7.90;99.90;;;;;;5088222;28;20274;-94
2022/01/23 14:07:58;;;;;;;6.87;3.90;;;7.90;99.90;;;;;;5088784;28;20289;-89
2022/01/23 14:10:35;;;;;;;13.87;4.10;;;7.90;99.90;;;;;;5088977;28;20784;-87
2022/01/23 14:13:14;;;;;;;6.00;3.53;;;7.90;99.90;;;;;;5087746;28;20359;-87
2022/01/23 14:15:52;;;;;;;6.83;3.87;;;7.90;99.90;;;;;;5086627;28;20868;-86
2022/01/23 14:18:22;;;;;;;9.13;3.63;;;7.90;99.90;;;;;;5071254;28;20278;-86
2022/01/23 14:21:05;;;;;;;8.77;4.70;;;7.90;99.90;;;;;;5087425;28;20286;-85
2022/01/23 14:23:34;;;;;;;8.07;4.03;;;7.90;99.90;;;;;;5088396;28;20290;-91
2022/01/23 14:26:15;;;;;;;8.73;4.43;;;7.80;99.90;;;;;;5086667;28;20270;-91
2022/01/23 14:28:42;;;;;;;9.10;4.30;;;7.90;99.90;;;;;;5090705;28;20291;-92
2022/01/23 14:31:15;;;;;;;6.40;3.67;;;7.90;99.90;;;;;;5074399;28;20618;-92
2022/01/23 14:33:41;;;;;;;10.13;4.50;;;7.90;99.90;;;;;;5091666;28;20693;-95
2022/01/23 14:36:23;;;;;;;8.20;4.87;;;7.90;99.90;;;;;;5090047;28;20292;-91
2022/01/23 14:38:53;;;;;;;10.80;4.80;;;7.80;99.90;;;;;;5090237;28;20048;-90
2022/01/23 14:41:19;;;;;;;9.67;4.37;;;7.80;99.90;;;;;;5074273;28;20308;-90
2022/01/23 14:43:44;;;;;;;8.40;4.30;;;7.80;99.90;;;;;;5090586;28;20291;-89
2022/01/23 14:46:12;;;;;;;9.03;4.17;;;7.80;99.90;;;;;;5089788;28;20443;-89
2022/01/23 14:48:45;;;;;;;8.67;4.10;;;7.80;99.90;;;;;;5074367;28;20058;-89
2022/01/23 14:51:15;;;;;;;7.70;4.50;;;7.80;99.90;;;;;;5075282;28;20290;-83
2022/01/23 14:53:41;;;;;;;8.00;4.50;;;7.80;99.90;;;;;;5060780;28;20665;-84
2022/01/23 14:56:10;;;;;;;7.80;4.30;;;7.80;99.90;;;;;;5093282;28;20355;-84
2022/01/23 14:58:37;;;;;;;7.90;4.93;;;7.70;99.90;;;;;;5093595;28;20104;-80
2022/01/23 15:01:05;;;;;;;8.90;5.20;;;7.70;99.90;;;;;;5086254;28;20282;-78
2022/01/23 15:03:31;;;;;;;8.63;5.03;;;7.70;99.90;;;;;;5091072;28;20276;-83
2022/01/23 15:05:59;;;;;;;7.83;4.83;;;7.70;99.90;;;;;;5075788;28;20325;-84
2022/01/23 15:08:25;;;;;;;9.50;4.63;;;7.70;99.90;;;;;;5094189;28;20278;-84
2022/01/23 15:10:53;;;;;;;8.90;4.87;;;7.70;99.90;;;;;;5092997;28;20294;-77
2022/01/23 15:13:21;;;;;;;10.57;5.57;;;7.70;99.90;;;;;;5093970;28;20294;-77
2022/01/23 15:15:47;;;;;;;10.73;6.73;;;7.60;99.90;;;;;;5094332;28;20274;-77
2022/01/23 15:18:13;;;;;;;8.57;5.17;;;7.60;99.90;;;;;;5093036;28;20282;-77
2022/01/23 15:20:39;;;;;;;9.60;4.73;;;7.70;99.90;;;;;;5094173;28;20274;-77
2022/01/23 15:23:07;;;;;;;9.43;4.80;;;7.60;99.90;;;;;;5075814;28;20290;-78
2022/01/23 15:25:33;;;;;;;8.77;5.10;;;7.60;99.90;;;;;;5094201;28;20286;-82
2022/01/23 15:27:59;;;;;;;8.23;4.87;;;7.60;99.90;;;;;;5093727;28;20321;-82
2022/01/23 15:30:26;;;;;;;7.53;4.80;;;7.60;99.90;;;;;;5093924;28;20361;-76
2022/01/23 15:32:53;;;;;;;9.77;5.37;;;7.60;99.90;;;;;;5093293;28;20294;-80
2022/01/23 15:35:20;;;;;;;8.83;5.30;;;7.60;99.90;;;;;;5090269;28;20288;-78
2022/01/23 15:37:47;;;;;;;9.07;5.37;;;7.60;99.90;;;;;;5083768;28;20328;-76
2022/01/23 15:40:15;;;;;;;12.87;5.77;;;7.60;99.90;;;;;;5083614;28;20335;-83
2022/01/23 15:42:43;;;;;;;13.93;4.73;;;7.60;99.90;;;;;;5086374;28;20287;-78
2022/01/23 15:45:10;;;;;;;9.80;5.67;;;7.50;99.90;;;;;;5069428;28;21004;-80
2022/01/23 15:47:36;;;;;;;10.67;5.53;;;7.50;99.90;;;;;;5086385;28;20286;-76
2022/01/23 15:50:03;;;;;;;8.67;5.47;;;7.50;99.90;;;;;;5086163;28;20293;-81
2022/01/23 15:52:29;;;;;;;10.33;5.60;;;7.50;99.90;;;;;;5092952;28;20619;-82
2022/01/23 15:54:55;;;;;;;10.23;5.57;;;7.50;99.90;;;;;;5075007;28;20314;-76
2022/01/23 15:57:20;;;;;;;11.83;6.20;;;7.50;99.90;;;;;;5074796;28;20047;-87
2022/01/23 15:59:46;;;;;;;10.77;6.03;;;7.40;99.90;;;;;;5075019;28;20094;-87
2022/01/23 16:02:13;;;;;;;8.40;6.50;;;7.50;99.90;;;;;;5074870;28;20080;-87
2022/01/23 16:04:45;;;;;;;11.47;5.67;;;7.50;99.90;;;;;;5075080;28;20050;-84
2022/01/23 16:07:16;;;;;;;13.33;6.43;;;7.50;99.90;;;;;;5074911;28;20781;-82
2022/01/23 16:09:43;;;;;;;13.23;7.13;;;7.40;99.90;;;;;;5069651;28;20340;-87
2022/01/23 16:12:09;;;;;;;12.37;7.70;;;7.40;99.90;;;;;;5085433;28;20367;-85
2022/01/23 16:14:35;;;;;;;11.43;7.50;;;7.40;99.90;;;;;;5085072;28;20337;-84
2022/01/23 16:17:00;;;;;;;14.00;8.30;;;7.40;99.90;;;;;;5067290;28;20290;-85
2022/01/23 16:19:26;;;;;;;11.70;7.63;;;7.40;99.90;;;;;;5085588;28;20587;-86
2022/01/23 16:21:54;;;;;;;11.70;6.53;;;7.40;99.90;;;;;;5069109;28;20044;-86
2022/01/23 16:24:21;;;;;;;10.40;6.23;;;;;;;;;;5068608;28;20054;-85
2022/01/23 16:26:49;;;;;;;13.27;8.73;;;;;;;;;;5083876;28;20286;-82
2022/01/23 16:29:15;;;;;;;11.33;7.20;;;7.40;99.90;;;;;;5085704;28;20880;-84
2022/01/23 16:31:40;;;;;;;12.73;8.77;;;7.40;99.90;;;;;;5085462;28;20361;-87
2022/01/23 16:34:07;;;;;;;14.37;9.80;;;7.40;99.90;;;;;;5051266;28;20390;-86
2022/01/23 16:36:35;;;;;;;13.50;8.80;;;7.40;99.90;;;;;;5068115;28;20075;-85
2022/01/23 16:39:03;;;;;;;25.20;13.37;;;7.40;99.90;;;;;;5085287;28;20696;-83
2022/01/23 16:41:29;;;;;;;24.57;12.30;;;7.40;99.90;;;;;;5068710;28;20282;-84
2022/01/23 16:43:55;;;;;;;10.73;7.40;;;7.40;99.90;;;;;;5085704;28;20321;-83
2022/01/23 16:46:21;;;;;;;14.73;10.27;;;7.40;99.90;;;;;;5084347;28;20321;-85
2022/01/23 16:48:47;;;;;;;14.17;7.90;;;7.30;99.90;;;;;;5071702;28;20443;-82
2022/01/23 16:51:12;;;;;;;9.57;5.97;;;7.30;99.90;;;;;;5072293;28;20355;-82
2022/01/23 16:53:38;;;;;;;10.83;6.57;;;7.40;99.90;;;;;;5089236;28;20809;-78
2022/01/23 16:56:04;;;;;;;11.93;6.60;;;7.30;99.90;;;;;;5086894;28;20324;-85
2022/01/23 16:58:31;;;;;;;11.20;7.37;;;7.30;99.90;;;;;;5072441;28;20100;-80
2022/01/23 17:00:58;;;;;;;12.87;8.87;;;7.40;99.90;;;;;;5088966;28;20077;-85
2022/01/23 17:03:24;;;;;;;9.57;6.50;;;7.30;99.90;;;;;;5089064;28;20290;-77
2022/01/23 17:05:51;;;;;;;11.63;6.90;;;7.30;99.90;;;;;;5091241;28;20277;-77
2022/01/23 17:08:18;;;;;;;8.73;5.93;;;7.30;99.90;;;;;;5096222;28;20298;-74
2022/01/23 17:10:45;;;;;;;11.37;6.40;;;7.30;99.90;;;;;;5095557;28;20300;-78
2022/01/23 17:13:11;;;;;;;8.63;6.27;;;7.30;99.90;;;;;;5096200;28;20298;-78
2022/01/23 17:15:38;;;;;;;12.17;7.13;;;7.30;99.90;;;;;;5095337;28;20344;-77
2022/01/23 17:18:05;;;;;;;11.70;6.63;;;7.30;99.90;;;;;;5096134;28;20285;-79
2022/01/23 17:20:31;;;;;;;12.37;7.13;;;7.30;99.90;;;;;;5078515;28;20765;-78
2022/01/23 17:22:57;;;;;;;11.73;8.07;;;7.30;99.90;;;;;;5096277;28;20335;-76
2022/01/23 17:25:23;;;;;;;9.63;7.00;;;7.30;99.90;;;;;;5095014;28;20355;-77
2022/01/23 17:27:49;;;;;;;10.63;7.03;;;7.30;99.90;;;;;;5088808;28;20044;-76
2022/01/23 17:30:17;;;;;;;10.70;7.77;;;7.30;99.90;;;;;;5090179;28;20036;-75
2022/01/23 17:32:42;;;;;;;11.87;6.60;;;7.30;99.90;;;;;;5095976;28;20058;-74
2022/01/23 17:35:09;;;;;;;9.30;6.63;;;7.30;99.90;;;;;;5095779;28;20784;-75
2022/01/23 17:37:35;;;;;;;10.90;7.63;;;7.30;99.90;;;;;;5095982;28;20051;-74
2022/01/23 17:40:02;;;;;;;10.67;6.77;;;7.30;99.90;;;;;;5095630;28;20286;-76
2022/01/23 17:42:29;;;;;;;10.93;7.03;;;7.20;99.90;;;;;;5096181;28;20301;-77
2022/01/23 17:44:54;;;;;;;10.07;6.33;;;7.20;99.90;;;;;;5095953;28;20758;-76
2022/01/23 17:49:57;;;;;;;14.23;8.15;;;7.20;99.90;;;;;;5095923;28;20073;-75